Time;durP1;ratioP1;P1;durP2;ratioP2;P2;SDS_P1;SDS_P2;PMS_P1;PMS_P2;Temp;Humidity;BMP_temperature;BMP_pressure;BME280_temperature;BME280_humidity;BME280_pressure;Samples;Min_cycle;Max_cycle;Signal;HPM_P1;HPM_P2
2022/12/09 00:03:36;;;;;;;4.35;3.05;;;;;;;;;;10035688;29;20060;-85
2022/12/09 00:08:41;;;;;;;3.40;2.40;;;;;;;;;;10043269;29;20106;-86
2022/12/09 00:13:48;;;;;;;1.95;1.67;;;;;;;;;;10031596;29;20129;-86
2022/12/09 00:18:52;;;;;;;2.90;2.10;;;;;;;;;;10013810;29;20053;-86
2022/12/09 00:23:59;;;;;;;3.58;1.90;;;;;;;;;;10028139;29;20144;-85
2022/12/09 00:29:03;;;;;;;3.92;1.95;;;;;;;;;;10020004;29;20121;-88
2022/12/09 00:34:08;;;;;;;3.00;1.98;;;;;;;;;;10021111;29;20799;-86
2022/12/09 00:39:14;;;;;;;2.58;1.83;;;;;;;;;;10028385;29;20057;-88
2022/12/09 00:44:18;;;;;;;3.25;2.13;;;;;;;;;;10029081;29;20581;-87
2022/12/09 00:49:22;;;;;;;3.10;2.10;;;;;;;;;;10029681;29;20070;-86
2022/12/09 00:54:26;;;;;;;3.28;2.13;;;;;;;;;;10028981;29;20132;-86
2022/12/09 00:59:30;;;;;;;2.28;1.70;;;;;;;;;;10027356;29;20057;-86
2022/12/09 01:04:33;;;;;;;2.13;1.55;;;;;;;;;;10026268;29;20075;-86
2022/12/09 01:09:38;;;;;;;2.65;1.90;;;;;;;;;;10027700;29;20118;-86
2022/12/09 01:14:42;;;;;;;4.00;2.20;;;;;;;;;;10027664;29;20136;-86
2022/12/09 01:19:45;;;;;;;2.20;1.70;;;;;;;;;;10019368;29;20045;-84
2022/12/09 01:24:50;;;;;;;1.85;1.58;;;;;;;;;;10018862;29;20045;-84
2022/12/09 01:29:54;;;;;;;3.00;2.10;;;;;;;;;;10019978;29;20049;-84
2022/12/09 01:34:57;;;;;;;2.05;1.60;;;;;;;;;;10019727;29;20814;-84
2022/12/09 01:40:02;;;;;;;2.10;1.50;;;;;;;;;;10003683;29;20050;-84
2022/12/09 01:45:45;;;;;;;2.85;1.52;;;;;;;;;;10017848;29;20113;-84
2022/12/09 01:50:52;;;;;;;1.98;1.38;;;;;;;;;;10015462;29;20072;-83
2022/12/09 01:56:01;;;;;;;1.65;1.35;;;;;;;;;;10019445;29;20041;-83
2022/12/09 02:01:06;;;;;;;2.17;1.73;;;;;;;;;;10012323;29;20053;-83
2022/12/09 02:06:10;;;;;;;2.65;1.75;;;;;;;;;;10002476;29;20144;-83
2022/12/09 02:11:22;;;;;;;2.78;1.70;;;;;;;;;;10001439;29;20072;-84
2022/12/09 02:16:29;;;;;;;2.20;1.63;;;;;;;;;;10002234;29;20110;-83
2022/12/09 02:21:37;;;;;;;1.73;1.33;;;;;;;;;;10018316;29;20693;-84
2022/12/09 02:26:48;;;;;;;2.20;1.85;;;;;;;;;;10009328;29;20141;-84
2022/12/09 02:32:10;;;;;;;1.92;1.50;;;;;;;;;;10001614;29;20075;-84
2022/12/09 02:37:20;;;;;;;3.28;1.60;;;;;;;;;;9995495;29;20053;-84
2022/12/09 02:42:32;;;;;;;2.45;1.60;;;;;;;;;;10014691;29;20501;-84
2022/12/09 02:47:42;;;;;;;1.77;1.50;;;;;;;;;;10017329;29;20069;-83
2022/12/09 02:52:52;;;;;;;1.88;1.48;;;;;;;;;;10017418;29;20825;-84
2022/12/09 02:58:00;;;;;;;1.63;1.50;;;;;;;;;;10002087;29;20053;-84
2022/12/09 03:03:09;;;;;;;1.77;1.27;;;;;;;;;;10010275;29;20075;-83
2022/12/09 03:08:19;;;;;;;2.65;1.70;;;;;;;;;;10017050;29;20437;-84
2022/12/09 03:13:42;;;;;;;2.55;1.73;;;;;;;;;;10022575;29;20141;-84
2022/12/09 03:18:50;;;;;;;3.10;1.80;;;;;;;;;;10007485;29;20058;-84
2022/12/09 03:23:58;;;;;;;1.45;1.25;;;;;;;;;;10022107;29;20049;-84
2022/12/09 03:29:05;;;;;;;1.55;1.30;;;;;;;;;;10006667;29;20416;-84
2022/12/09 03:34:13;;;;;;;2.13;1.67;;;;;;;;;;10024947;29;20048;-83
2022/12/09 03:39:23;;;;;;;1.45;1.23;;;;;;;;;;10007545;29;20061;-84
2022/12/09 03:44:32;;;;;;;1.70;1.60;;;;;;;;;;10017309;29;20433;-84
2022/12/09 03:49:37;;;;;;;2.15;1.63;;;;;;;;;;10021995;29;20136;-84
2022/12/09 03:54:44;;;;;;;1.80;1.50;;;;;;;;;;10024643;29;20056;-84
2022/12/09 03:59:55;;;;;;;3.05;2.17;;;;;;;;;;10022954;29;20068;-84
2022/12/09 04:04:58;;;;;;;2.45;1.80;;;;;;;;;;10006868;29;20080;-84
2022/12/09 04:10:04;;;;;;;4.00;2.20;;;;;;;;;;10021386;29;20064;-84
2022/12/09 04:15:09;;;;;;;4.13;2.13;;;;;;;;;;10007107;29;20698;-84
2022/12/09 04:20:13;;;;;;;2.75;2.38;;;;;;;;;;10005920;29;20425;-84
2022/12/09 04:25:19;;;;;;;4.65;3.10;;;;;;;;;;10021032;29;20053;-84
2022/12/09 04:30:26;;;;;;;2.90;2.30;;;;;;;;;;10022839;29;20080;-84
2022/12/09 04:35:30;;;;;;;2.03;1.80;;;;;;;;;;10021355;29;20053;-84
2022/12/09 04:40:35;;;;;;;2.90;2.10;;;;;;;;;;10019990;29;20052;-83
2022/12/09 04:45:38;;;;;;;3.33;2.35;;;;;;;;;;10023003;29;20077;-84
2022/12/09 04:50:42;;;;;;;5.90;2.83;;;;;;;;;;10027523;29;20764;-84
2022/12/09 04:55:47;;;;;;;2.97;2.38;;;;;;;;;;10027808;29;20061;-83
2022/12/09 05:00:50;;;;;;;3.33;2.50;;;;;;;;;;10003850;29;20053;-85
2022/12/09 05:05:54;;;;;;;2.90;2.17;;;;;;;;;;10029247;29;20057;-84
2022/12/09 05:10:59;;;;;;;3.22;2.45;;;;;;;;;;10021316;29;20057;-84
2022/12/09 05:16:04;;;;;;;2.65;2.35;;;;;;;;;;10012788;29;20045;-84
2022/12/09 05:21:12;;;;;;;2.72;2.13;;;;;;;;;;10017809;29;20414;-83
2022/12/09 05:26:18;;;;;;;2.47;2.08;;;;;;;;;;10019119;29;20076;-84
2022/12/09 05:31:23;;;;;;;3.53;2.10;;;;;;;;;;10026603;29;20062;-84
2022/12/09 05:36:27;;;;;;;3.13;2.22;;;;;;;;;;10027564;29;20045;-84
2022/12/09 05:41:32;;;;;;;2.15;1.80;;;;;;;;;;10017771;29;20053;-85
2022/12/09 05:46:36;;;;;;;3.58;2.10;;;;;;;;;;10016479;29;20140;-84
2022/12/09 05:51:39;;;;;;;2.58;2.08;;;;;;;;;;10026726;29;20195;-84
2022/12/09 05:56:44;;;;;;;2.05;1.85;;;;;;;;;;10049927;29;20085;-87
2022/12/09 06:01:50;;;;;;;2.55;1.90;;;;;;;;;;10041698;29;20125;-87
2022/12/09 06:06:53;;;;;;;6.45;2.80;;;;;;;;;;10036436;29;20140;-87
2022/12/09 06:11:58;;;;;;;3.42;2.20;;;;;;;;;;10049063;29;20497;-86
2022/12/09 06:17:02;;;;;;;2.88;2.13;;;;;;;;;;10034735;29;20141;-87
2022/12/09 06:22:06;;;;;;;4.93;2.65;;;;;;;;;;10032785;29;20061;-84
2022/12/09 06:27:10;;;;;;;4.30;2.72;;;;;;;;;;10014682;29;20049;-84
2022/12/09 06:32:16;;;;;;;3.05;2.40;;;;;;;;;;10025228;29;20720;-84
2022/12/09 06:37:20;;;;;;;3.13;2.40;;;;;;;;;;10026165;29;20118;-84
2022/12/09 06:42:25;;;;;;;3.50;2.55;;;;;;;;;;10029573;29;20430;-86
2022/12/09 06:47:31;;;;;;;4.25;2.53;;;;;;;;;;10045700;29;20132;-89
2022/12/09 06:52:36;;;;;;;2.83;2.35;;;;;;;;;;10060212;29;20109;-89
2022/12/09 06:57:41;;;;;;;3.58;2.13;;;;;;;;;;10069729;29;20214;-88
2022/12/09 07:02:45;;;;;;;3.50;2.33;;;;;;;;;;10072607;29;20056;-86
2022/12/09 07:07:51;;;;;;;2.80;2.00;;;;;;;;;;10070791;29;20049;-88
2022/12/09 07:12:56;;;;;;;2.70;2.00;;;;;;;;;;10078974;29;20144;-88
2022/12/09 07:18:01;;;;;;;4.03;2.53;;;;;;;;;;10087511;29;20538;-88
2022/12/09 07:23:05;;;;;;;3.90;2.83;;;;;;;;;;10070656;29;20057;-89
2022/12/09 07:28:10;;;;;;;3.78;2.72;;;;;;;;;;10083505;29;20266;-93
2022/12/09 07:33:13;;;;;;;4.50;3.10;;;;;;;;;;10101073;29;20057;-90
2022/12/09 07:38:17;;;;;;;3.58;2.60;;;;;;;;;;10074200;29;20110;-88
2022/12/09 07:43:22;;;;;;;4.22;2.83;;;;;;;;;;10065940;29;20061;-88
2022/12/09 07:48:26;;;;;;;4.65;3.17;;;;;;;;;;10065276;29;20627;-87
2022/12/09 07:53:30;;;;;;;5.30;3.45;;;;;;;;;;10065126;29;20531;-88
2022/12/09 07:58:35;;;;;;;4.70;2.97;;;;;;;;;;10056338;29;20050;-87
2022/12/09 08:03:40;;;;;;;5.00;3.20;;;;;;;;;;10060738;29;20102;-89
2022/12/09 08:08:45;;;;;;;4.68;3.05;;;;;;;;;;10080784;29;20055;-87
2022/12/09 08:13:50;;;;;;;4.70;2.85;;;;;;;;;;10066139;29;20092;-92
2022/12/09 08:18:56;;;;;;;7.40;4.47;;;;;;;;;;10069057;29;20053;-87
2022/12/09 08:24:02;;;;;;;7.17;4.00;;;;;;;;;;10077548;29;20077;-91
2022/12/09 08:29:09;;;;;;;4.40;3.47;;;;;;;;;;10053456;29;20056;-87
2022/12/09 08:34:13;;;;;;;6.18;3.78;;;;;;;;;;10046937;29;20067;-85
2022/12/09 08:39:17;;;;;;;6.53;3.85;;;;;;;;;;10021670;29;20049;-88
2022/12/09 08:44:22;;;;;;;6.80;4.25;;;;;;;;;;10062308;29;20544;-90
2022/12/09 08:49:26;;;;;;;6.97;4.25;;;;;;;;;;10062826;29;20107;-93
2022/12/09 08:54:30;;;;;;;6.50;4.28;;;;;;;;;;10059610;29;20049;-88
2022/12/09 08:59:35;;;;;;;8.95;5.82;;;;;;;;;;10066366;29;20421;-87
2022/12/09 09:04:42;;;;;;;8.90;6.10;;;;;;;;;;10063233;29;20078;-92
2022/12/09 09:09:46;;;;;;;8.30;5.90;;;;;;;;;;10056425;29;20073;-88
2022/12/09 09:14:53;;;;;;;15.32;10.25;;;;;;;;;;10070012;29;20064;-87
2022/12/09 09:19:57;;;;;;;10.50;7.30;;;;;;;;;;10063909;29;20053;-89
2022/12/09 09:25:01;;;;;;;13.40;8.43;;;;;;;;;;10046738;29;20530;-87
2022/12/09 09:30:09;;;;;;;10.10;5.75;;;;;;;;;;10054363;29;20117;-89
2022/12/09 09:35:12;;;;;;;5.78;4.07;;;;;;;;;;10059069;29;20057;-91
2022/12/09 09:40:17;;;;;;;11.63;6.85;;;;;;;;;;10050288;29;20064;-87
2022/12/09 09:45:24;;;;;;;8.32;4.78;;;;;;;;;;10036434;29;20053;-87
2022/12/09 09:50:34;;;;;;;7.70;4.50;;;;;;;;;;10052952;29;20061;-89
2022/12/09 09:55:46;;;;;;;5.22;3.45;;;;;;;;;;10051822;29;20101;-88
2022/12/09 10:00:56;;;;;;;5.93;3.55;;;;;;;;;;10029661;29;20141;-86
2022/12/09 10:06:06;;;;;;;5.80;3.83;;;;;;;;;;10022367;29;20649;-86
2022/12/09 10:11:17;;;;;;;4.22;3.28;;;;;;;;;;10023209;29;20076;-85
2022/12/09 10:16:26;;;;;;;4.72;3.28;;;;;;;;;;10024851;29;20062;-85
2022/12/09 10:21:32;;;;;;;5.22;3.60;;;;;;;;;;10026536;29;20057;-85
2022/12/09 10:26:36;;;;;;;5.23;3.63;;;;;;;;;;10048126;23;20620;-83
2022/12/09 10:31:41;;;;;;;5.68;3.17;;;;;;;;;;10040769;29;20056;-82
2022/12/09 10:36:47;;;;;;;3.85;2.88;;;;;;;;;;10041381;29;20088;-82
2022/12/09 10:47:26;;;;;;;7.03;4.05;;;;;;;;;;10026599;29;20760;-82
2022/12/09 10:52:36;;;;;;;5.22;3.65;;;;;;;;;;10041646;29;20109;-82
2022/12/09 10:57:39;;;;;;;4.85;3.30;;;;;;;;;;10027553;29;20521;-82
2022/12/09 11:02:50;;;;;;;5.03;2.67;;;;;;;;;;10042726;29;20052;-82
2022/12/09 11:07:56;;;;;;;4.47;3.03;;;;;;;;;;10041456;29;20553;-82
2022/12/09 11:13:03;;;;;;;4.30;3.22;;;;;;;;;;10038175;29;20069;-83
2022/12/09 11:18:17;;;;;;;3.92;3.00;;;;;;;;;;10015901;29;20045;-83
2022/12/09 11:23:21;;;;;;;5.53;3.88;;;;;;;;;;10050049;29;20061;-83
2022/12/09 11:28:28;;;;;;;7.00;4.38;;;;;;;;;;10037640;29;20406;-83
2022/12/09 11:33:37;;;;;;;4.82;3.50;;;;;;;;;;10019707;29;20270;-82
2022/12/09 11:38:42;;;;;;;6.97;3.70;;;;;;;;;;10035668;29;20057;-83
2022/12/09 11:43:49;;;;;;;4.53;3.25;;;;;;;;;;10043650;29;20132;-82
2022/12/09 11:48:57;;;;;;;5.97;3.90;;;;;;;;;;10037709;29;20056;-83
2022/12/09 11:54:05;;;;;;;5.30;3.60;;;;;;;;;;10038508;29;20060;-83
2022/12/09 11:59:13;;;;;;;6.28;4.13;;;;;;;;;;10015743;29;20144;-83
2022/12/09 12:04:24;;;;;;;6.72;4.57;;;;;;;;;;10041635;29;20118;-83
2022/12/09 12:09:33;;;;;;;8.30;4.93;;;;;;;;;;10031380;29;20516;-82
2022/12/09 12:14:41;;;;;;;6.45;3.92;;;;;;;;;;10040514;29;20053;-82
2022/12/09 12:19:50;;;;;;;4.72;3.20;;;;;;;;;;10030429;29;20720;-82
2022/12/09 12:25:18;;;;;;;4.55;2.95;;;;;;;;;;10014152;29;20053;-83
2022/12/09 12:30:24;;;;;;;4.28;2.85;;;;;;;;;;10022282;29;20260;-83
2022/12/09 12:35:48;;;;;;;4.75;3.08;;;;;;;;;;10032530;29;20045;-83
2022/12/09 12:41:01;;;;;;;7.32;4.55;;;;;;;;;;10029611;29;20057;-82
2022/12/09 12:46:17;;;;;;;6.82;4.45;;;;;;;;;;10028907;29;20082;-82
2022/12/09 12:51:32;;;;;;;12.88;7.80;;;;;;;;;;10029357;29;20054;-83
2022/12/09 12:56:42;;;;;;;10.65;6.50;;;;;;;;;;10027947;29;20068;-83
2022/12/09 13:01:52;;;;;;;6.57;4.30;;;;;;;;;;10030068;29;20041;-82
2022/12/09 13:07:04;;;;;;;5.78;3.63;;;;;;;;;;10039334;29;20184;-83
2022/12/09 13:12:13;;;;;;;4.35;3.38;;;;;;;;;;10024552;29;20051;-83
2022/12/09 13:17:17;;;;;;;6.03;3.78;;;;;;;;;;10031388;29;20468;-84
2022/12/09 13:22:25;;;;;;;5.20;3.45;;;;;;;;;;10031467;29;20061;-82
2022/12/09 13:27:35;;;;;;;5.13;3.42;;;;;;;;;;10029823;29;20113;-83
2022/12/09 13:33:10;;;;;;;5.28;3.20;;;;;;;;;;10028324;29;20048;-83
2022/12/09 13:38:35;;;;;;;4.30;2.97;;;;;;;;;;10013764;29;20046;-83
2022/12/09 13:43:40;;;;;;;5.78;3.47;;;;;;;;;;10029285;29;20061;-83
2022/12/09 13:48:48;;;;;;;6.93;4.38;;;;;;;;;;10036558;29;20256;-83
2022/12/09 13:54:00;;;;;;;7.22;5.05;;;;;;;;;;10030021;29;20053;-83
2022/12/09 13:59:42;;;;;;;7.20;4.63;;;;;;;;;;10027044;29;20836;-83
2022/12/09 14:04:51;;;;;;;5.15;3.25;;;;;;;;;;10028078;29;20064;-82
2022/12/09 14:09:59;;;;;;;8.40;4.90;;;;;;;;;;10033661;29;20772;-84
2022/12/09 14:15:05;;;;;;;5.78;3.92;;;;;;;;;;10045116;29;20047;-83
2022/12/09 14:20:20;;;;;;;4.75;2.97;;;;;;;;;;10052513;29;20060;-83
2022/12/09 14:25:57;;;;;;;5.38;3.40;;;;;;;;;;10057587;29;20057;-84
2022/12/09 14:31:00;;;;;;;5.18;3.30;;;;;;;;;;10042232;29;20045;-83
2022/12/09 14:36:23;;;;;;;4.10;2.83;;;;;;;;;;10065777;29;20128;-83
2022/12/09 14:41:32;;;;;;;5.28;3.55;;;;;;;;;;10058131;29;20057;-83
2022/12/09 14:46:38;;;;;;;4.82;3.47;;;;;;;;;;10048507;29;20057;-83
2022/12/09 14:51:46;;;;;;;5.75;4.38;;;;;;;;;;10046733;29;20046;-83
2022/12/09 14:56:52;;;;;;;8.75;4.10;;;;;;;;;;10048031;29;20067;-82
2022/12/09 15:01:58;;;;;;;5.47;3.83;;;;;;;;;;10026693;29;20049;-83
2022/12/09 15:07:12;;;;;;;6.60;3.80;;;;;;;;;;10016321;29;20406;-83
2022/12/09 15:12:18;;;;;;;6.63;4.25;;;;;;;;;;10020948;29;20060;-83
2022/12/09 15:17:26;;;;;;;5.95;4.28;;;;;;;;;;10027133;29;20484;-83
2022/12/09 15:22:31;;;;;;;7.53;4.68;;;;;;;;;;10032971;29;20053;-82
2022/12/09 15:27:36;;;;;;;7.25;4.32;;;;;;;;;;10030842;29;20053;-83
2022/12/09 15:32:40;;;;;;;6.07;3.80;;;;;;;;;;10035293;29;20056;-84
2022/12/09 15:37:47;;;;;;;6.00;3.97;;;;;;;;;;10042012;29;20064;-84
2022/12/09 15:42:54;;;;;;;5.38;3.55;;;;;;;;;;10034191;29;20484;-84
2022/12/09 15:48:01;;;;;;;6.47;3.80;;;;;;;;;;10032079;29;20057;-83
2022/12/09 15:53:09;;;;;;;6.82;4.63;;;;;;;;;;10037366;29;20052;-84
2022/12/09 15:58:16;;;;;;;7.20;4.15;;;;;;;;;;10017455;29;20053;-83
2022/12/09 16:03:24;;;;;;;5.93;3.92;;;;;;;;;;10009683;29;20053;-83
2022/12/09 16:08:43;;;;;;;5.43;3.70;;;;;;;;;;10036925;29;20049;-82
2022/12/09 16:14:00;;;;;;;5.47;3.70;;;;;;;;;;10009097;29;20164;-82
2022/12/09 16:19:03;;;;;;;6.40;4.60;;;;;;;;;;10033431;29;20661;-83
2022/12/09 16:24:12;;;;;;;6.63;4.55;;;;;;;;;;10018885;29;20080;-83
2022/12/09 16:29:23;;;;;;;7.18;4.57;;;;;;;;;;10028732;29;20053;-82
2022/12/09 16:34:30;;;;;;;3.40;3.08;;;;;;;;;;10793182;23;20164;-85
2022/12/09 16:39:36;;;;;;;7.93;4.43;;;;;;;;;;10055944;29;20575;-85
2022/12/09 16:44:42;;;;;;;5.78;3.75;;;;;;;;;;10041294;29;20122;-85
2022/12/09 16:49:47;;;;;;;5.37;3.40;;;;;;;;;;10130464;23;20058;-83
2022/12/09 16:54:51;;;;;;;4.68;2.97;;;;;;;;;;10038029;29;20302;-83
2022/12/09 16:59:56;;;;;;;5.30;3.60;;;;;;;;;;10054575;29;20061;-83
2022/12/09 17:05:00;;;;;;;5.25;3.22;;;;;;;;;;10032442;29;20068;-83
2022/12/09 17:10:04;;;;;;;7.07;3.83;;;;;;;;;;10052273;29;20506;-83
2022/12/09 17:15:13;;;;;;;4.53;3.40;;;;;;;;;;10050270;29;20064;-83
2022/12/09 17:20:17;;;;;;;4.57;3.03;;;;;;;;;;10034580;29;20041;-83
2022/12/09 17:25:20;;;;;;;5.45;3.78;;;;;;;;;;10051480;29;20060;-84
2022/12/09 17:30:25;;;;;;;5.63;3.45;;;;;;;;;;10055605;29;20498;-81
2022/12/09 17:35:28;;;;;;;4.72;3.33;;;;;;;;;;10038112;29;20445;-82
2022/12/09 17:40:34;;;;;;;6.93;3.92;;;;;;;;;;10045288;29;20060;-83
2022/12/09 17:45:44;;;;;;;5.17;3.20;;;;;;;;;;10029685;29;20064;-84
2022/12/09 17:50:51;;;;;;;3.40;2.70;;;;;;;;;;10022561;29;20092;-83
2022/12/09 17:55:55;;;;;;;4.93;3.20;;;;;;;;;;10029126;29;20746;-84
2022/12/09 18:01:01;;;;;;;7.07;4.43;;;;;;;;;;10029340;29;20512;-84
2022/12/09 18:06:04;;;;;;;10.40;6.45;;;;;;;;;;10016919;29;20061;-83
2022/12/09 18:11:10;;;;;;;6.50;4.35;;;;;;;;;;10034221;29;20050;-84
2022/12/09 18:16:16;;;;;;;6.60;4.50;;;;;;;;;;10034493;29;20057;-83
2022/12/09 18:21:20;;;;;;;5.22;4.10;;;;;;;;;;10034382;29;20057;-84
2022/12/09 18:26:23;;;;;;;5.18;3.50;;;;;;;;;;10016587;29;20061;-83
2022/12/09 18:31:31;;;;;;;6.18;3.60;;;;;;;;;;10031775;29;20574;-84
2022/12/09 18:36:34;;;;;;;4.68;3.10;;;;;;;;;;10015542;29;20065;-83
2022/12/09 18:41:37;;;;;;;4.88;3.13;;;;;;;;;;10019831;29;20125;-83
2022/12/09 18:46:46;;;;;;;5.13;3.33;;;;;;;;;;10037645;29;20057;-82
2022/12/09 18:51:51;;;;;;;5.82;3.25;;;;;;;;;;10030182;29;20057;-83
2022/12/09 18:56:55;;;;;;;4.50;3.50;;;;;;;;;;10036337;29;20060;-84
2022/12/09 19:01:59;;;;;;;3.58;2.42;;;;;;;;;;10039504;29;20148;-83
2022/12/09 19:07:03;;;;;;;4.60;2.90;;;;;;;;;;10040171;29;20050;-84
2022/12/09 19:12:08;;;;;;;4.13;2.33;;;;;;;;;;10037020;29;20056;-83
2022/12/09 19:17:33;;;;;;;3.70;2.95;;;;;;;;;;10039833;29;20053;-83
2022/12/09 19:22:36;;;;;;;3.38;2.65;;;;;;;;;;10039590;29;20053;-84
2022/12/09 19:27:39;;;;;;;3.08;2.22;;;;;;;;;;10037664;29;20148;-83
2022/12/09 19:32:44;;;;;;;3.40;2.50;;;;;;;;;;10021400;29;20049;-83
2022/12/09 19:37:55;;;;;;;3.65;2.78;;;;;;;;;;10036022;29;20482;-82
2022/12/09 19:43:03;;;;;;;4.65;3.33;;;;;;;;;;10020914;29;20050;-84
2022/12/09 19:48:09;;;;;;;4.28;3.13;;;;;;;;;;10035796;29;20425;-84
2022/12/09 19:53:12;;;;;;;4.03;3.30;;;;;;;;;;10031307;29;20050;-83
2022/12/09 19:58:16;;;;;;;3.13;2.50;;;;;;;;;;10015130;29;20133;-84
2022/12/09 20:03:20;;;;;;;4.18;3.00;;;;;;;;;;10032885;29;20139;-82
2022/12/09 20:08:24;;;;;;;4.28;3.10;;;;;;;;;;10020678;29;20057;-83
2022/12/09 20:13:28;;;;;;;6.30;3.75;;;;;;;;;;10058232;29;20069;-82
2022/12/09 20:18:36;;;;;;;5.82;3.40;;;;;;;;;;10055832;29;20080;-81
2022/12/09 20:23:41;;;;;;;7.85;3.97;;;;;;;;;;10055742;29;20429;-80
2022/12/09 20:28:46;;;;;;;6.43;4.37;;;;;;;;;;10045460;29;20080;-81
2022/12/09 20:33:54;;;;;;;6.13;4.10;;;;;;;;;;10031749;29;20412;-80
2022/12/09 20:39:00;;;;;;;6.05;4.38;;;;;;;;;;10035314;29;20066;-81
2022/12/09 20:44:03;;;;;;;7.75;5.10;;;;;;;;;;10035934;29;20056;-80
2022/12/09 20:49:09;;;;;;;6.70;4.82;;;;;;;;;;10036142;29;20049;-82
2022/12/09 20:54:13;;;;;;;7.10;4.70;;;;;;;;;;10045896;29;20136;-81
2022/12/09 20:59:16;;;;;;;7.35;4.80;;;;;;;;;;10034742;29;20061;-80
2022/12/09 21:04:21;;;;;;;7.97;4.60;;;;;;;;;;10034903;29;20065;-80
2022/12/09 21:09:29;;;;;;;5.95;4.50;;;;;;;;;;10019679;29;20058;-82
2022/12/09 21:14:34;;;;;;;6.50;4.40;;;;;;;;;;10037380;29;20075;-82
2022/12/09 21:19:39;;;;;;;9.05;6.18;;;;;;;;;;10044411;29;20061;-81
2022/12/09 21:24:44;;;;;;;8.30;5.28;;;;;;;;;;10037343;29;20053;-81
2022/12/09 21:29:50;;;;;;;8.13;5.40;;;;;;;;;;10043080;29;20075;-81
2022/12/09 21:34:56;;;;;;;9.55;5.90;;;;;;;;;;10043906;29;20154;-81
2022/12/09 21:40:00;;;;;;;6.63;4.43;;;;;;;;;;10036936;29;20140;-81
2022/12/09 21:45:05;;;;;;;7.15;4.45;;;;;;;;;;10034727;29;20061;-81
2022/12/09 21:50:10;;;;;;;7.05;4.28;;;;;;;;;;10045426;29;20133;-81
2022/12/09 21:55:13;;;;;;;6.18;4.07;;;;;;;;;;10036631;29;20084;-79
2022/12/09 22:00:18;;;;;;;6.10;3.92;;;;;;;;;;10040768;29;20053;-81
2022/12/09 22:05:22;;;;;;;7.55;3.95;;;;;;;;;;10035323;29;20045;-80
2022/12/09 22:10:26;;;;;;;8.48;5.28;;;;;;;;;;10025270;29;20054;-80
2022/12/09 22:15:30;;;;;;;10.68;6.22;;;;;;;;;;10038952;29;20057;-80
2022/12/09 22:20:36;;;;;;;8.50;4.90;;;;;;;;;;10043835;29;20071;-80
2022/12/09 22:25:59;;;;;;;6.72;4.75;;;;;;;;;;10031787;29;20406;-81
2022/12/09 22:31:09;;;;;;;7.97;4.10;;;;;;;;;;10038704;29;20059;-81
2022/12/09 22:36:14;;;;;;;6.68;3.50;;;;;;;;;;10046612;29;20140;-80
2022/12/09 22:41:21;;;;;;;6.35;3.78;;;;;;;;;;10050546;29;20054;-81
2022/12/09 22:46:26;;;;;;;5.82;3.95;;;;;;;;;;10049977;29;20533;-80
2022/12/09 22:51:36;;;;;;;6.90;4.15;;;;;;;;;;10040800;29;20057;-80
2022/12/09 22:56:42;;;;;;;6.85;4.32;;;;;;;;;;10033486;29;20816;-80
2022/12/09 23:01:46;;;;;;;;;;;;;;;;;;10039995;29;20060;-81
2022/12/09 23:06:52;;;;;;;4.85;3.33;;;;;;;;;;10044553;29;19924;-82
2022/12/09 23:11:56;;;;;;;6.00;3.87;;;;;;;;;;10018894;29;20140;-79
2022/12/09 23:17:00;;;;;;;7.32;4.05;;;;;;;;;;10033862;29;20132;-79
2022/12/09 23:22:04;;;;;;;5.55;3.55;;;;;;;;;;10039105;29;20065;-80
2022/12/09 23:27:08;;;;;;;5.53;3.42;;;;;;;;;;10037995;29;20068;-80
2022/12/09 23:32:11;;;;;;;5.47;4.28;;;;;;;;;;10028680;29;20264;-80
2022/12/09 23:37:16;;;;;;;4.28;3.22;;;;;;;;;;10044078;29;20500;-79
2022/12/09 23:42:20;;;;;;;6.53;3.83;;;;;;;;;;10043392;29;20046;-79
2022/12/09 23:47:24;;;;;;;6.85;3.45;;;;;;;;;;10048182;29;20050;-80
2022/12/09 23:52:29;;;;;;;4.63;3.35;;;;;;;;;;10030780;29;20049;-79
2022/12/09 23:57:32;;;;;;;5.25;3.70;;;;;;;;;;10042847;29;20088;-79
